Time;durP1;ratioP1;P1;durP2;ratioP2;P2;SDS_P1;SDS_P2;PMS_P1;PMS_P2;Temp;Humidity;BMP_temperature;BMP_pressure;BME280_temperature;BME280_humidity;BME280_pressure;Samples;Min_cycle;Max_cycle;Signal;HPM_P1;HPM_P2
2023/04/27 00:01:45;;;;;;;56.70;23.60;;;;;;;11.82;100.00;98987.11;106914;1273;25300;-71
2023/04/27 00:04:13;;;;;;;89.10;38.60;;;;;;;11.82;100.00;98995.58;107058;1274;22518;-71
2023/04/27 00:06:42;;;;;;;29.40;13.20;;;;;;;11.81;100.00;99001.98;106980;1274;22906;-71
2023/04/27 00:09:09;;;;;;;64.00;26.30;;;;;;;11.80;100.00;99009.40;107044;1274;22561;-71
2023/04/27 00:11:37;;;;;;;39.50;15.70;;;;;;;11.78;100.00;99016.60;107000;1274;22768;-71
2023/04/27 00:14:04;;;;;;;18.00;7.80;;;;;;;11.78;100.00;99022.61;107044;1274;22595;-71
2023/04/27 00:16:31;;;;;;;17.00;6.70;;;;;;;11.77;100.00;99033.11;106987;1251;22527;-71
2023/04/27 00:18:59;;;;;;;12.30;6.00;;;;;;;11.77;100.00;99041.85;107038;1274;22767;-71
2023/04/27 00:21:26;;;;;;;12.90;5.40;;;;;;;11.75;100.00;99043.17;107041;1274;22558;-71
2023/04/27 00:23:54;;;;;;;12.90;4.90;;;;;;;11.73;100.00;99044.21;107037;1274;25393;-71
2023/04/27 00:26:21;;;;;;;9.20;4.60;;;;;;;11.69;100.00;99045.98;107073;1274;24198;-71
2023/04/27 00:28:49;;;;;;;9.10;4.60;;;;;;;11.66;100.00;99045.94;107057;1274;24234;-71
2023/04/27 00:31:16;;;;;;;8.20;4.00;;;;;;;11.62;100.00;99050.33;107054;1267;22520;-70
2023/04/27 00:33:44;;;;;;;9.00;4.50;;;;;;;11.60;100.00;99057.66;107077;1274;24039;-71
2023/04/27 00:36:12;;;;;;;9.60;4.50;;;;;;;11.57;100.00;99061.39;107026;1274;22520;-70
2023/04/27 00:38:40;;;;;;;11.40;4.70;;;;;;;11.57;100.00;99065.94;107036;1274;25249;-70
2023/04/27 00:41:07;;;;;;;8.90;4.30;;;;;;;11.57;100.00;99080.02;107036;1274;22562;-71
2023/04/27 00:43:44;;;;;;;39.60;14.80;;;;;;;11.57;100.00;99080.56;107032;1274;22529;-71
2023/04/27 00:46:12;;;;;;;224.50;72.50;;;;;;;11.57;100.00;99086.52;107035;1274;22709;-71
2023/04/27 00:48:40;;;;;;;398.80;135.00;;;;;;;11.57;100.00;99089.55;107107;1274;22772;-71
2023/04/27 00:51:29;;;;;;;351.70;121.50;;;;;;;11.58;100.00;99082.86;107072;1274;22554;-71
2023/04/27 00:53:57;;;;;;;269.80;94.30;;;;;;;11.57;100.00;99087.93;107029;1274;22517;-71
2023/04/27 00:56:24;;;;;;;82.30;35.50;;;;;;;11.56;100.00;99087.34;107121;1274;22519;-70
2023/04/27 00:58:52;;;;;;;45.60;19.70;;;;;;;11.55;100.00;99098.91;106914;1274;22527;-71
2023/04/27 01:01:19;;;;;;;31.30;12.50;;;;;;;11.53;100.00;99103.31;106961;1274;22531;-71
2023/04/27 01:03:47;;;;;;;17.30;7.40;;;;;;;11.52;100.00;99114.48;106931;1274;25366;-71
2023/04/27 01:06:15;;;;;;;14.60;6.90;;;;;;;11.55;100.00;99122.49;106955;1274;22576;-70
2023/04/27 01:08:43;;;;;;;11.80;4.80;;;;;;;11.59;100.00;99125.98;106939;1274;22561;-71
2023/04/27 01:11:10;;;;;;;14.10;6.20;;;;;;;11.63;100.00;99123.78;107047;1274;25288;-70
2023/04/27 01:13:38;;;;;;;55.80;26.40;;;;;;;11.63;100.00;99120.59;107021;1274;22569;-71
2023/04/27 01:16:06;;;;;;;91.60;27.40;;;;;;;11.62;100.00;99118.61;107026;1274;22524;-70
2023/04/27 01:18:34;;;;;;;28.80;10.30;;;;;;;11.59;100.00;99114.47;107025;1274;22520;-70
2023/04/27 01:21:02;;;;;;;76.00;33.30;;;;;;;11.53;100.00;99105.61;107058;1274;24268;-71
2023/04/27 01:23:31;;;;;;;82.20;35.90;;;;;;;11.48;100.00;99107.78;107011;1274;22524;-71
2023/04/27 01:25:58;;;;;;;59.90;27.40;;;;;;;11.44;100.00;99117.47;107026;1274;22520;-70
2023/04/27 01:28:25;;;;;;;96.30;40.60;;;;;;;11.41;100.00;99124.40;107132;1274;22534;-71
2023/04/27 01:30:52;;;;;;;113.70;46.20;;;;;;;11.38;100.00;99122.23;106953;1274;22523;-71
2023/04/27 01:33:21;;;;;;;199.10;79.50;;;;;;;11.35;100.00;99122.73;107059;1274;22523;-71
2023/04/27 01:35:49;;;;;;;96.60;42.00;;;;;;;11.34;100.00;99128.36;107028;1274;24666;-70
2023/04/27 01:38:16;;;;;;;75.40;35.30;;;;;;;11.31;100.00;99135.17;107076;1274;22523;-70
2023/04/27 01:40:43;;;;;;;60.80;28.00;;;;;;;11.30;100.00;99143.86;106976;1274;22529;-72
2023/04/27 01:43:12;;;;;;;75.50;30.90;;;;;;;11.29;100.00;99146.67;106960;1274;22543;-70
2023/04/27 01:45:39;;;;;;;96.80;37.90;;;;;;;11.29;100.00;99150.14;106995;1274;24192;-70
2023/04/27 01:48:06;;;;;;;79.70;31.30;;;;;;;11.29;100.00;99161.63;107003;1274;25395;-72
2023/04/27 01:50:34;;;;;;;38.40;16.60;;;;;;;11.29;100.00;99174.33;106807;1274;25412;-70
2023/04/27 01:53:02;;;;;;;25.90;10.30;;;;;;;11.27;100.00;99184.06;107046;1274;22735;-69
2023/04/27 01:55:29;;;;;;;47.60;21.30;;;;;;;11.25;100.00;99185.79;106830;1274;25382;-70
2023/04/27 01:57:57;;;;;;;27.90;12.90;;;;;;;11.22;100.00;99174.36;106862;1274;25308;-70
2023/04/27 02:00:24;;;;;;;15.30;5.70;;;;;;;11.23;100.00;99164.46;106800;1274;25287;-69
2023/04/27 02:02:56;;;;;;;14.30;6.60;;;;;;;11.23;100.00;99170.79;107001;1274;22510;-70
2023/04/27 02:05:23;;;;;;;51.20;23.00;;;;;;;11.19;100.00;99177.84;107046;1274;22636;-70
2023/04/27 02:07:51;;;;;;;25.70;12.00;;;;;;;11.19;100.00;99197.19;106973;1274;25473;-70
2023/04/27 02:10:21;;;;;;;13.40;6.30;;;;;;;11.21;100.00;99217.61;106960;1274;25293;-70
2023/04/27 02:12:48;;;;;;;11.30;5.80;;;;;;;11.21;100.00;99243.50;106969;1274;22527;-71
2023/04/27 02:15:16;;;;;;;14.70;5.00;;;;;;;11.18;100.00;99254.30;106992;1274;24190;-70
2023/04/27 02:17:44;;;;;;;38.70;16.80;;;;;;;11.16;100.00;99246.91;106977;1275;22528;-70
2023/04/27 02:20:11;;;;;;;52.50;23.80;;;;;;;11.16;100.00;99262.31;107061;1274;22523;-70
2023/04/27 02:22:43;;;;;;;25.30;11.60;;;;;;;11.16;100.00;99261.64;107035;1275;22525;-70
2023/04/27 02:25:11;;;;;;;45.20;21.10;;;;;;;11.15;100.00;99249.44;107017;1275;23340;-71
2023/04/27 02:27:40;;;;;;;58.90;28.00;;;;;;;11.14;100.00;99267.96;107001;1274;22523;-70
2023/04/27 02:30:08;;;;;;;117.70;41.40;;;;;;;11.13;100.00;99274.98;106948;1274;25348;-70
2023/04/27 02:32:36;;;;;;;442.20;149.60;;;;;;;11.13;100.00;99279.35;107054;1274;22521;-70
2023/04/27 02:35:04;;;;;;;316.50;110.00;;;;;;;11.13;100.00;99269.16;106888;1274;23896;-70
2023/04/27 02:37:31;;;;;;;32.20;16.70;;;;;;;11.14;100.00;99256.39;107010;1274;22529;-70
2023/04/27 02:39:59;;;;;;;140.20;49.10;;;;;;;11.13;100.00;99284.85;106913;1274;25374;-70
2023/04/27 02:42:26;;;;;;;107.30;37.30;;;;;;;11.09;100.00;99335.30;107032;1274;24237;-73
2023/04/27 02:44:53;;;;;;;30.10;13.70;;;;;;;11.07;100.00;99344.34;107017;1275;22546;-70
2023/04/27 02:47:20;;;;;;;38.50;15.50;;;;;;;11.03;100.00;99340.77;107019;1275;25293;-70
2023/04/27 02:49:48;;;;;;;454.90;149.30;;;;;;;11.01;100.00;99347.15;107012;1274;25284;-70
2023/04/27 02:52:15;;;;;;;856.70;312.80;;;;;;;11.00;100.00;99359.30;107001;1274;22617;-70
2023/04/27 02:54:42;;;;;;;900.70;330.40;;;;;;;11.00;100.00;99379.70;107077;1274;25405;-71
2023/04/27 02:57:10;;;;;;;142.20;47.90;;;;;;;11.01;100.00;99385.12;107050;1275;22639;-70
2023/04/27 02:59:37;;;;;;;96.30;33.20;;;;;;;11.04;100.00;99391.71;107025;1274;25346;-71
2023/04/27 03:02:05;;;;;;;44.20;17.10;;;;;;;11.05;100.00;99400.22;107021;1274;23130;-70
2023/04/27 03:04:32;;;;;;;196.30;63.60;;;;;;;11.05;100.00;99417.00;107040;1274;24285;-70
2023/04/27 03:06:59;;;;;;;25.60;10.90;;;;;;;11.06;100.00;99436.57;107038;1274;25369;-70
2023/04/27 03:09:26;;;;;;;172.50;43.80;;;;;;;11.08;100.00;99426.27;107060;1274;22533;-70
2023/04/27 03:11:56;;;;;;;618.00;222.70;;;;;;;11.07;100.00;99423.85;107020;1275;26472;-70
2023/04/27 03:14:23;;;;;;;69.30;29.90;;;;;;;11.06;100.00;99418.84;107026;1275;23878;-70
2023/04/27 03:16:51;;;;;;;22.80;9.70;;;;;;;11.07;100.00;99407.41;107012;1274;25479;-70
2023/04/27 03:19:18;;;;;;;21.00;9.00;;;;;;;11.07;100.00;99408.24;107013;1275;25247;-70
2023/04/27 03:21:46;;;;;;;28.10;10.30;;;;;;;11.08;100.00;99401.29;106907;1274;22523;-70
2023/04/27 03:24:14;;;;;;;19.70;7.80;;;;;;;11.08;100.00;99413.04;107026;1275;25244;-71
2023/04/27 03:26:42;;;;;;;28.80;9.10;;;;;;;11.08;100.00;99420.08;107044;1275;24682;-71
2023/04/27 03:29:09;;;;;;;14.30;7.20;;;;;;;11.10;100.00;99427.27;107063;1275;24993;-70
2023/04/27 03:31:36;;;;;;;16.40;7.40;;;;;;;11.13;100.00;99437.78;107094;1274;22499;-71
2023/04/27 03:34:03;;;;;;;81.10;27.40;;;;;;;11.19;100.00;99485.61;108527;1274;22516;-71
2023/04/27 03:36:31;;;;;;;23.20;9.40;;;;;;;11.25;100.00;99516.19;108567;1274;22516;-71
2023/04/27 03:38:58;;;;;;;40.70;17.20;;;;;;;11.27;100.00;99521.98;107622;1275;25347;-70
2023/04/27 03:41:25;;;;;;;37.90;15.40;;;;;;;11.27;100.00;99537.67;107056;1275;25288;-70
2023/04/27 03:43:53;;;;;;;24.50;9.80;;;;;;;11.27;100.00;99552.56;107032;1274;25344;-70
2023/04/27 03:46:20;;;;;;;21.30;8.50;;;;;;;11.24;100.00;99554.52;107045;1274;22513;-70
2023/04/27 03:48:48;;;;;;;392.40;149.10;;;;;;;11.20;100.00;99561.77;107016;1274;22527;-71
2023/04/27 03:51:15;;;;;;;781.40;196.10;;;;;;;11.15;100.00;99565.98;107030;1274;25101;-70
2023/04/27 03:53:44;;;;;;;748.20;199.40;;;;;;;11.10;100.00;99572.95;106988;1275;22527;-70
2023/04/27 03:56:12;;;;;;;586.00;151.70;;;;;;;11.05;100.00;99585.52;107031;1275;22534;-70
2023/04/27 03:58:40;;;;;;;291.20;73.90;;;;;;;11.01;100.00;99599.76;106950;1275;22581;-71
2023/04/27 04:01:18;;;;;;;77.70;27.40;;;;;;;10.98;100.00;99617.52;107010;1274;25284;-71
2023/04/27 04:03:46;;;;;;;49.00;20.50;;;;;;;10.93;100.00;99657.39;106917;1274;22526;-71
2023/04/27 04:06:14;;;;;;;126.40;73.20;;;;;;;10.88;100.00;99695.30;107103;1274;22546;-71
2023/04/27 04:08:41;;;;;;;80.70;37.70;;;;;;;10.85;100.00;99732.67;107035;1275;22520;-71
2023/04/27 04:11:09;;;;;;;51.00;22.90;;;;;;;10.83;100.00;99760.23;106971;1275;25352;-71
2023/04/27 04:13:36;;;;;;;24.70;10.60;;;;;;;10.83;100.00;99783.04;107049;1275;25249;-71
2023/04/27 04:16:05;;;;;;;40.70;17.10;;;;;;;10.83;100.00;99812.52;107004;1274;24241;-71
2023/04/27 04:18:33;;;;;;;24.40;11.00;;;;;;;10.85;100.00;99850.80;107032;1274;25428;-71
2023/04/27 04:21:01;;;;;;;17.90;7.80;;;;;;;10.86;100.00;99892.88;106974;1274;24249;-70
2023/04/27 04:23:28;;;;;;;16.20;6.60;;;;;;;10.86;100.00;99896.66;107016;1274;22523;-71
2023/04/27 04:25:56;;;;;;;14.80;6.70;;;;;;;10.86;100.00;99891.45;107006;1274;22633;-71
2023/04/27 04:28:25;;;;;;;16.80;7.00;;;;;;;10.85;100.00;99897.61;106989;1274;22524;-71
2023/04/27 04:30:52;;;;;;;19.20;8.20;;;;;;;10.88;100.00;99899.27;107043;1274;24221;-71
2023/04/27 04:33:20;;;;;;;20.50;9.10;;;;;;;10.90;100.00;99879.06;106845;1274;22543;-71
2023/04/27 04:35:47;;;;;;;22.50;9.30;;;;;;;10.93;100.00;99889.86;106945;1274;22635;-71
2023/04/27 04:38:15;;;;;;;17.40;8.00;;;;;;;10.97;100.00;99901.14;107062;1274;22600;-71
2023/04/27 04:40:43;;;;;;;15.20;7.00;;;;;;;11.01;100.00;99902.13;107014;1274;22526;-71
2023/04/27 04:43:12;;;;;;;14.70;6.60;;;;;;;11.05;100.00;99902.04;107026;1274;22520;-72
2023/04/27 04:45:41;;;;;;;18.60;7.30;;;;;;;11.09;100.00;99907.70;107012;1274;26525;-71
2023/04/27 04:48:09;;;;;;;36.40;18.40;;;;;;;11.11;100.00;99910.15;106818;1274;24679;-71
2023/04/27 04:50:36;;;;;;;38.90;16.60;;;;;;;11.13;100.00;99917.69;106730;1274;22527;-72
2023/04/27 04:53:03;;;;;;;113.80;43.90;;;;;;;11.14;100.00;99917.89;106514;1274;22524;-72
2023/04/27 04:55:32;;;;;;;61.30;26.50;;;;;;;11.15;100.00;99922.84;106822;1274;25331;-71
2023/04/27 04:57:59;;;;;;;44.50;19.50;;;;;;;11.15;100.00;99923.23;107061;1274;25341;-71
2023/04/27 05:00:27;;;;;;;29.20;13.80;;;;;;;11.15;100.00;99928.09;107032;1274;24646;-71
2023/04/27 05:02:54;;;;;;;20.20;8.40;;;;;;;11.17;100.00;99925.02;107060;1274;25389;-71
2023/04/27 05:05:22;;;;;;;17.00;7.20;;;;;;;11.18;100.00;99926.95;107142;1274;22521;-72
2023/04/27 05:07:49;;;;;;;16.50;7.10;;;;;;;11.19;100.00;99929.56;107019;1274;22524;-70
2023/04/27 05:10:17;;;;;;;14.60;7.20;;;;;;;11.21;100.00;99923.06;107106;1274;22523;-70
2023/04/27 05:12:44;;;;;;;99.20;73.50;;;;;;;11.25;100.00;99915.05;107072;1274;25369;-68
2023/04/27 05:15:11;;;;;;;33.30;19.10;;;;;;;11.31;100.00;99905.30;106947;1267;22524;-72
2023/04/27 05:17:39;;;;;;;22.80;12.50;;;;;;;11.39;100.00;99923.89;107034;1268;24480;-71
2023/04/27 05:20:08;;;;;;;36.70;21.50;;;;;;;11.45;100.00;99927.84;106996;1266;25148;-74
2023/04/27 05:22:36;;;;;;;243.00;159.00;;;;;;;11.53;100.00;99920.59;107056;1267;25369;-71
2023/04/27 05:25:03;;;;;;;51.10;32.50;;;;;;;11.63;100.00;99912.96;107035;1275;23883;-70
2023/04/27 05:27:31;;;;;;;36.30;24.60;;;;;;;11.73;100.00;99903.64;107009;1275;22530;-69
2023/04/27 05:29:58;;;;;;;32.00;20.80;;;;;;;11.84;100.00;99881.64;106983;1270;24199;-71
2023/04/27 05:32:25;;;;;;;21.50;11.30;;;;;;;11.96;100.00;99863.92;107005;1275;23894;-70
2023/04/27 05:34:52;;;;;;;33.50;18.00;;;;;;;12.09;100.00;99843.73;106885;1272;25397;-68
2023/04/27 05:37:20;;;;;;;25.80;12.90;;;;;;;12.23;100.00;99829.79;107009;1269;25250;-67
2023/04/27 05:39:47;;;;;;;26.80;14.60;;;;;;;12.36;100.00;99822.21;106963;1269;25371;-67
2023/04/27 05:42:15;;;;;;;33.70;17.50;;;;;;;12.48;100.00;99819.86;106819;1267;24748;-68
2023/04/27 05:44:42;;;;;;;23.60;11.90;;;;;;;12.58;100.00;99825.57;106813;1274;25358;-69
2023/04/27 05:47:10;;;;;;;31.80;14.00;;;;;;;12.64;100.00;99835.46;106824;1267;25597;-70
2023/04/27 05:49:37;;;;;;;22.10;10.90;;;;;;;12.72;100.00;99858.67;107053;1274;22538;-70
2023/04/27 05:52:04;;;;;;;40.60;19.70;;;;;;;12.85;100.00;99876.45;106881;1274;24037;-67
2023/04/27 05:54:32;;;;;;;32.80;14.70;;;;;;;12.98;100.00;99879.23;106902;1272;22538;-67
2023/04/27 05:56:59;;;;;;;15.10;8.00;;;;;;;13.11;100.00;99884.06;106846;1274;22523;-67
2023/04/27 05:59:28;;;;;;;32.00;18.60;;;;;;;13.25;100.00;99885.90;106839;1270;25285;-67
2023/04/27 06:01:55;;;;;;;18.80;9.10;;;;;;;13.41;100.00;99889.90;107027;1274;24502;-69
2023/04/27 06:04:24;;;;;;;14.70;7.50;;;;;;;13.61;100.00;99880.52;107151;1270;22540;-70
2023/04/27 06:06:52;;;;;;;18.50;8.20;;;;;;;13.89;100.00;99878.76;106928;1274;24239;-72
2023/04/27 06:09:19;;;;;;;15.90;7.20;;;;;;;14.26;100.00;99879.15;107047;1273;22528;-75
2023/04/27 06:11:46;;;;;;;42.50;21.90;;;;;;;14.60;100.00;99875.23;107071;1274;22523;-73
2023/04/27 06:14:15;;;;;;;79.80;37.40;;;;;;;14.84;100.00;99858.52;107062;1270;25304;-72
2023/04/27 06:16:43;;;;;;;122.90;48.70;;;;;;;14.90;100.00;99789.44;107163;1267;22552;-71
2023/04/27 06:19:10;;;;;;;28.70;13.40;;;;;;;14.91;100.00;99700.19;107097;1274;22744;-73
2023/04/27 06:21:38;;;;;;;258.70;125.00;;;;;;;14.94;100.00;99629.08;107241;1269;22639;-70
2023/04/27 06:24:06;;;;;;;137.90;69.00;;;;;;;15.01;100.00;99569.19;107085;1267;22543;-70
2023/04/27 06:26:33;;;;;;;61.20;33.30;;;;;;;15.07;100.00;99498.77;107263;1266;22534;-70
2023/04/27 06:29:02;;;;;;;94.50;43.30;;;;;;;15.23;100.00;99435.75;106795;1270;22774;-69
2023/04/27 06:31:30;;;;;;;45.40;21.90;;;;;;;15.46;100.00;99376.58;106850;1275;22688;-74
2023/04/27 06:33:57;;;;;;;23.30;10.60;;;;;;;15.82;100.00;99335.96;107105;1267;24250;-72
2023/04/27 06:36:28;;;;;;;24.70;10.50;;;;;;;16.26;100.00;99305.77;106970;1273;25431;-74
2023/04/27 06:38:55;;;;;;;24.10;10.50;;;;;;;16.71;100.00;99228.86;106884;1272;22624;-72
2023/04/27 06:41:23;;;;;;;27.40;10.80;;;;;;;17.08;100.00;99164.59;106840;1270;25426;-71
2023/04/27 06:43:51;;;;;;;136.10;54.50;;;;;;;17.40;100.00;99077.69;107025;1269;25295;-71
2023/04/27 06:46:19;;;;;;;162.20;71.90;;;;;;;17.67;100.00;98995.68;107213;1267;22627;-71
2023/04/27 06:48:46;;;;;;;87.80;42.00;;;;;;;17.80;100.00;98871.55;107019;1272;24347;-67
2023/04/27 06:51:13;;;;;;;28.60;13.50;;;;;;;17.86;100.00;98787.71;107005;1274;24278;-68
2023/04/27 06:53:41;;;;;;;31.40;15.90;;;;;;;18.03;100.00;98755.55;107036;1274;25354;-71
2023/04/27 06:56:11;;;;;;;27.50;13.10;;;;;;;18.26;100.00;98703.35;107051;1274;24519;-70
2023/04/27 06:58:38;;;;;;;69.70;36.90;;;;;;;18.43;100.00;98637.70;107046;1274;24297;-67
2023/04/27 07:01:05;;;;;;;30.90;15.70;;;;;;;18.55;100.00;98599.73;107098;1273;26559;-67
2023/04/27 07:03:36;;;;;;;35.10;13.10;;;;;;;18.73;100.00;98587.98;107073;1273;25239;-68
2023/04/27 07:06:04;;;;;;;20.40;9.10;;;;;;;19.01;100.00;98553.51;107023;1274;22527;-69
2023/04/27 07:08:32;;;;;;;84.80;36.60;;;;;;;19.32;100.00;98524.61;107076;1270;22537;-67
2023/04/27 07:10:59;;;;;;;24.70;10.10;;;;;;;19.52;100.00;98475.55;107038;1274;25319;-68
2023/04/27 07:13:27;;;;;;;20.60;8.10;;;;;;;19.62;100.00;98409.63;106975;1274;22521;-68
2023/04/27 07:15:56;;;;;;;74.80;32.40;;;;;;;19.69;100.00;98356.34;107016;1273;22602;-70
2023/04/27 07:18:26;;;;;;;29.90;10.80;;;;;;;19.74;100.00;98356.67;107027;1275;22653;-66
2023/04/27 07:20:54;;;;;;;21.60;8.90;;;;;;;19.78;100.00;98362.20;107062;1268;22639;-69
2023/04/27 07:23:21;;;;;;;29.00;11.20;;;;;;;19.85;100.00;98360.41;107055;1268;22564;-65
2023/04/27 07:25:49;;;;;;;23.40;7.60;;;;;;;19.97;100.00;98348.67;106868;1273;24278;-66
2023/04/27 07:28:17;;;;;;;21.50;8.30;;;;;;;20.15;100.00;98343.08;106956;1274;24373;-67
2023/04/27 07:30:44;;;;;;;20.30;7.20;;;;;;;20.35;100.00;98343.65;107070;1274;22747;-67
2023/04/27 07:35:58;;;;;;;31.00;9.60;;;;;;;20.97;100.00;98316.05;107067;1274;22535;-73
2023/04/27 07:38:30;;;;;;;21.10;7.30;;;;;;;21.30;100.00;98323.31;107093;1272;22526;-72
2023/04/27 07:40:59;;;;;;;35.70;9.50;;;;;;;21.54;100.00;98354.28;106633;1275;22557;-72
2023/04/27 07:43:27;;;;;;;20.70;6.60;;;;;;;21.56;100.00;98387.43;106980;1267;25400;-72
2023/04/27 07:45:57;;;;;;;123.60;43.80;;;;;;;21.60;100.00;98378.72;106929;1275;25242;-67
2023/04/27 07:48:33;;;;;;;33.20;15.00;;;;;;;21.65;100.00;98401.45;106913;1274;24257;-77
2023/04/27 07:51:14;;;;;;;192.20;98.90;;;;;;;21.55;100.00;98422.02;106706;1275;22618;-72
2023/04/27 07:53:42;;;;;;;265.10;132.20;;;;;;;21.51;100.00;98421.60;107010;1273;25344;-66
2023/04/27 07:56:11;;;;;;;285.10;148.60;;;;;;;21.45;100.00;98439.21;106952;1273;22534;-66
2023/04/27 07:58:38;;;;;;;104.10;59.70;;;;;;;21.31;100.00;98437.61;107531;1268;23632;-71
2023/04/27 08:01:06;;;;;;;35.50;18.30;;;;;;;21.32;100.00;98419.75;107095;1270;23854;-71
2023/04/27 08:03:33;;;;;;;50.00;26.30;;;;;;;21.48;100.00;98403.84;106705;1266;24265;-74
2023/04/27 08:06:03;;;;;;;58.50;18.10;;;;;;;21.68;100.00;98406.11;106789;1273;22574;-70
2023/04/27 08:08:31;;;;;;;46.80;16.60;;;;;;;21.75;100.00;98432.60;106784;1273;24259;-71
2023/04/27 08:10:59;;;;;;;49.40;21.10;;;;;;;21.78;100.00;98428.52;106995;1273;22510;-71
2023/04/27 08:13:27;;;;;;;34.60;12.00;;;;;;;21.95;100.00;98427.23;106859;1273;22746;-70
2023/04/27 08:15:57;;;;;;;21.00;7.70;;;;;;;21.95;100.00;98469.63;106799;1256;22535;-72
2023/04/27 08:18:25;;;;;;;18.00;7.70;;;;;;;21.83;100.00;98479.04;107180;1254;22544;-70
2023/04/27 08:20:52;;;;;;;17.50;7.60;;;;;;;21.78;100.00;98478.84;107158;1275;24253;-72
2023/04/27 08:23:26;;;;;;;27.30;8.90;;;;;;;21.81;100.00;98470.15;106719;1274;25379;-70
2023/04/27 08:25:53;;;;;;;31.50;14.40;;;;;;;21.97;100.00;98457.56;106879;1273;22540;-71
2023/04/27 08:28:22;;;;;;;182.20;63.70;;;;;;;22.22;100.00;98447.11;107139;1274;22528;-70
2023/04/27 08:30:50;;;;;;;41.60;19.00;;;;;;;22.48;100.00;98448.20;106863;1273;24443;-70
2023/04/27 08:33:18;;;;;;;20.10;9.20;;;;;;;22.79;100.00;98439.54;106811;1270;22520;-71
2023/04/27 08:35:46;;;;;;;37.50;14.80;;;;;;;23.08;100.00;98465.57;106931;1257;22629;-71
2023/04/27 08:38:13;;;;;;;28.30;11.10;;;;;;;23.28;100.00;98490.35;106799;1274;22524;-72
2023/04/27 08:40:44;;;;;;;55.80;18.70;;;;;;;23.45;100.00;98492.91;106878;1267;24860;-67
2023/04/27 08:43:11;;;;;;;24.00;9.10;;;;;;;23.54;100.00;98518.69;107055;1273;25492;-71
2023/04/27 08:45:42;;;;;;;16.40;6.10;;;;;;;23.53;100.00;98534.20;107060;1273;22538;-65
2023/04/27 08:48:10;;;;;;;17.50;7.20;;;;;;;23.51;100.00;98550.55;106698;1274;25497;-73
2023/04/27 08:50:37;;;;;;;12.90;4.90;;;;;;;23.56;100.00;98547.06;106926;1270;25229;-71
2023/04/27 08:53:05;;;;;;;13.20;4.60;;;;;;;23.67;100.00;98568.08;106663;1271;22617;-76
2023/04/27 08:55:32;;;;;;;28.90;15.00;;;;;;;23.67;100.00;98586.73;106912;1267;25369;-71
2023/04/27 08:58:00;;;;;;;20.60;7.80;;;;;;;23.75;100.00;98557.90;107064;1273;25297;-74
2023/04/27 09:00:40;;;;;;;186.40;54.80;;;;;;;23.94;100.00;98552.34;107137;1272;22641;-68
2023/04/27 09:03:35;;;;;;;23.30;9.50;;;;;;;24.10;100.00;98556.98;106844;1269;22580;-72
2023/04/27 09:06:11;;;;;;;;;;;;;;;24.32;100.00;98575.75;106804;1275;23122;-69
2023/04/27 09:08:47;;;;;;;15.00;5.30;;;;;;;24.35;100.00;98617.53;106762;1270;23106;-67
2023/04/27 09:11:26;;;;;;;17.30;5.50;;;;;;;24.25;100.00;98611.02;106896;1273;22524;-69
2023/04/27 09:13:54;;;;;;;16.50;4.70;;;;;;;24.27;100.00;98620.73;107009;1269;25555;-69
2023/04/27 09:16:22;;;;;;;8.30;4.20;;;;;;;24.33;100.00;98624.08;106678;1270;22981;-69
2023/04/27 09:18:50;;;;;;;15.80;7.10;;;;;;;24.50;100.00;98618.83;106865;1273;24294;-70
2023/04/27 09:21:24;;;;;;;10.20;5.10;;;;;;;24.81;100.00;98606.84;106738;1273;22753;-72
2023/04/27 09:23:52;;;;;;;17.80;6.50;;;;;;;25.10;100.00;98644.45;107390;1269;22534;-72
2023/04/27 09:26:24;;;;;;;13.70;5.20;;;;;;;25.09;100.00;98688.75;107234;1274;23027;-73
2023/04/27 09:28:53;;;;;;;11.60;4.30;;;;;;;24.80;100.00;98705.70;107378;1273;24202;-70
2023/04/27 09:31:31;;;;;;;10.30;3.80;;;;;;;24.42;100.00;98688.92;107321;1273;24004;-71
2023/04/27 09:34:00;;;;;;;5.70;3.80;;;;;;;24.15;100.00;98678.86;107251;1273;22634;-71
2023/04/27 09:36:29;;;;;;;10.50;4.60;;;;;;;23.89;100.00;98676.61;106870;1273;22879;-71
2023/04/27 09:38:57;;;;;;;14.80;4.60;;;;;;;23.88;100.00;98643.66;106875;1274;24287;-71
2023/04/27 09:41:24;;;;;;;6.40;3.40;;;;;;;23.89;100.00;98672.98;106925;1273;24289;-66
2023/04/27 09:43:52;;;;;;;10.40;4.30;;;;;;;23.74;100.00;98672.75;106870;1273;22641;-69
2023/04/27 09:46:22;;;;;;;16.80;4.40;;;;;;;23.84;100.00;98646.08;107081;1270;23425;-72
2023/04/27 09:48:50;;;;;;;6.80;3.50;;;;;;;23.95;100.00;98654.47;107035;1273;22568;-73
2023/04/27 09:51:17;;;;;;;8.20;3.00;;;;;;;24.12;100.00;98632.61;107042;1267;22522;-71
2023/04/27 09:53:48;;;;;;;14.50;5.60;;;;;;;24.60;100.00;98650.36;106999;1273;22534;-70
2023/04/27 09:56:50;;;;;;;9.50;3.90;;;;;;;25.02;100.00;98739.80;107082;1272;23661;-71
2023/04/27 09:59:20;;;;;;;10.10;3.80;;;;;;;25.28;100.00;98840.41;106938;1272;22523;-70
2023/04/27 10:01:50;;;;;;;8.50;3.70;;;;;;;25.31;100.00;98918.77;107014;1267;22555;-68
2023/04/27 10:04:49;;;;;;;8.10;3.50;;;;;;;25.20;100.00;98941.79;107169;1273;22671;-68
2023/04/27 10:07:16;;;;;;;7.40;3.40;;;;;;;25.23;100.00;98950.56;106803;1274;22526;-66
2023/04/27 10:09:50;;;;;;;10.90;4.10;;;;;;;25.24;100.00;98983.91;106758;1274;22573;-67
2023/04/27 10:12:31;;;;;;;8.60;4.10;;;;;;;24.95;100.00;98998.23;107003;1274;22526;-67
2023/04/27 10:15:00;;;;;;;15.00;4.80;;;;;;;24.88;100.00;99001.73;107005;1267;25276;-66
2023/04/27 10:17:32;;;;;;;20.00;4.30;;;;;;;24.78;100.00;99037.10;106973;1274;22759;-67
2023/04/27 10:20:03;;;;;;;9.50;4.20;;;;;;;24.63;100.00;99030.59;106917;1273;22757;-65
2023/04/27 10:22:41;;;;;;;9.70;4.10;;;;;;;24.68;100.00;99030.67;107038;1273;24221;-66
2023/04/27 10:25:40;;;;;;;16.40;7.30;;;;;;;24.55;100.00;99031.74;106990;1274;24234;-67
2023/04/27 10:28:14;;;;;;;13.20;5.40;;;;;;;24.25;100.00;99014.96;106788;1269;22555;-67
2023/04/27 10:30:45;;;;;;;15.20;5.90;;;;;;;24.17;100.00;99009.39;106804;1274;22638;-66
2023/04/27 10:33:15;;;;;;;11.30;5.60;;;;;;;24.16;100.00;99014.81;106983;1273;22573;-72
2023/04/27 10:35:44;;;;;;;13.50;6.20;;;;;;;23.87;100.00;99014.63;106722;1267;22548;-72
2023/04/27 10:38:16;;;;;;;15.90;5.60;;;;;;;23.47;100.00;99001.60;107076;1267;22541;-72
2023/04/27 10:40:44;;;;;;;16.20;5.80;;;;;;;23.26;100.00;98983.52;107085;1270;25297;-70
2023/04/27 10:43:14;;;;;;;15.00;5.70;;;;;;;23.33;100.00;98989.40;106855;1274;22528;-70
2023/04/27 10:45:43;;;;;;;21.40;6.20;;;;;;;23.51;100.00;99020.40;106870;1251;22533;-72
2023/04/27 10:48:16;;;;;;;7.60;3.80;;;;;;;23.73;100.00;99053.98;107100;1267;24227;-72
2023/04/27 10:50:44;;;;;;;10.20;4.10;;;;;;;23.78;100.00;99078.36;106867;1272;22593;-72
2023/04/27 10:53:13;;;;;;;5.50;2.60;;;;;;;23.79;100.00;99084.59;106864;1274;24314;-71
2023/04/27 10:55:40;;;;;;;8.30;3.00;;;;;;;23.91;100.00;99098.71;106659;1268;24390;-70
2023/04/27 10:58:08;;;;;;;4.30;2.50;;;;;;;24.16;100.00;99113.52;106759;1270;22525;-72
2023/04/27 11:00:42;;;;;;;7.80;2.90;;;;;;;24.37;100.00;99130.59;106624;1273;24274;-71
2023/04/27 11:03:19;;;;;;;16.60;3.50;;;;;;;24.33;100.00;99140.33;106899;1273;22526;-71
2023/04/27 11:05:48;;;;;;;12.00;3.40;;;;;;;24.20;100.00;99138.52;107152;1274;22586;-71
2023/04/27 11:08:16;;;;;;;3.90;2.30;;;;;;;24.40;100.00;99149.53;106704;1274;26648;-70
2023/04/27 11:10:48;;;;;;;3.90;1.90;;;;;;;24.57;100.00;99157.45;107006;1274;22561;-70
2023/04/27 11:13:22;;;;;;;3.30;1.80;;;;;;;24.60;100.00;99153.75;106882;1271;24348;-66
2023/04/27 11:15:50;;;;;;;4.20;2.20;;;;;;;24.66;100.00;99153.17;106935;1274;22524;-66